createdAt,value
2022-12-20T00:01:00.235Z,101182.44
2022-12-20T00:03:26.974Z,101182.44
2022-12-20T00:05:53.347Z,101179.91
2022-12-20T00:08:19.867Z,101173.91
2022-12-20T00:10:46.638Z,101182.78
2022-12-20T00:13:13.069Z,101187.97
2022-12-20T00:15:39.510Z,101190.50
2022-12-20T00:18:06.728Z,101180.78
2022-12-20T00:20:33.288Z,101185.78
2022-12-20T00:22:59.705Z,101185.13
2022-12-20T00:25:26.383Z,101173.19
2022-12-20T00:27:52.794Z,101173.19
2022-12-20T00:30:19.837Z,101168.69
2022-12-20T00:32:46.961Z,101168.50
2022-12-20T00:35:13.906Z,101160.47
2022-12-20T00:37:40.421Z,101160.47
2022-12-20T00:40:07.535Z,101155.44
2022-12-20T00:42:33.917Z,101158.94
2022-12-20T00:45:00.314Z,101159.78
2022-12-20T00:47:26.804Z,101161.28
2022-12-20T00:49:53.278Z,101163.81
2022-12-20T00:52:19.698Z,101161.28
2022-12-20T00:54:46.071Z,101152.41
2022-12-20T00:57:12.432Z,101149.53
2022-12-20T00:59:38.819Z,101157.25
2022-12-20T01:02:05.700Z,101149.88
2022-12-20T01:04:32.216Z,101138.47
2022-12-20T01:06:58.648Z,101140.84
2022-12-20T01:09:25.034Z,101138.31
2022-12-20T01:11:51.570Z,101125.78
2022-12-20T01:14:18.025Z,101125.25
2022-12-20T01:16:46.787Z,101114.16
2022-12-20T01:19:17.528Z,101126.22
2022-12-20T01:21:44.796Z,101126.22
2022-12-20T01:24:13.221Z,101114.63
2022-12-20T01:26:40.032Z,101125.88
2022-12-20T01:29:06.635Z,101124.75
2022-12-20T01:31:33.281Z,101114.84
2022-12-20T01:33:59.950Z,101117.53
2022-12-20T01:36:29.496Z,101111.97
2022-12-20T01:38:58.177Z,101117.19
2022-12-20T01:41:25.236Z,101118.22
2022-12-20T01:43:58.465Z,101113.69
2022-12-20T01:46:28.565Z,101099.06
2022-12-20T01:49:19.203Z,101093.69
2022-12-20T01:51:50.243Z,101095.41
2022-12-20T01:54:16.565Z,101098.41
2022-12-20T01:56:48.050Z,101097.41
2022-12-20T01:59:15.018Z,101091.19
2022-12-20T02:01:43.654Z,101088.03
2022-12-20T02:04:11.225Z,101087.84
2022-12-20T02:06:37.632Z,101079.97
2022-12-20T02:09:06.446Z,101079.81
2022-12-20T02:11:50.295Z,101071.94
2022-12-20T02:14:45.008Z,101073.28
2022-12-20T02:17:18.019Z,101069.59
2022-12-20T02:20:06.736Z,101070.22
2022-12-20T02:23:01.020Z,101072.91
2022-12-20T02:25:43.235Z,101070.22
2022-12-20T02:28:26.281Z,101075.25
2022-12-20T02:30:54.957Z,101071.00
2022-12-20T02:33:27.148Z,101077.69
2022-12-20T02:35:53.907Z,101070.00
2022-12-20T02:38:28.469Z,101074.72
2022-12-20T02:41:01.291Z,101080.44
2022-12-20T02:43:48.869Z,101080.25
2022-12-20T02:46:17.937Z,101081.94
2022-12-20T02:48:46.587Z,101083.41
2022-12-20T02:51:16.018Z,101082.75
2022-12-20T02:53:43.205Z,101072.03
2022-12-20T02:56:19.256Z,101067.97
2022-12-20T02:58:55.344Z,101061.25
2022-12-20T03:01:34.134Z,101059.75
2022-12-20T03:04:01.200Z,101076.88
2022-12-20T03:06:28.008Z,101070.19
2022-12-20T03:08:54.516Z,101061.59
2022-12-20T03:11:24.801Z,101059.09
2022-12-20T03:13:51.309Z,101067.84
2022-12-20T03:16:17.873Z,101068.31
2022-12-20T03:18:45.970Z,101057.06
2022-12-20T03:21:12.530Z,101062.44
2022-12-20T03:23:38.987Z,101058.91
2022-12-20T03:26:06.070Z,101071.97
2022-12-20T03:28:45.869Z,101062.56
2022-12-20T03:31:16.968Z,101071.09
2022-12-20T03:33:48.947Z,101071.75
2022-12-20T03:36:15.993Z,101063.41
2022-12-20T03:38:42.860Z,101052.47
2022-12-20T03:41:09.542Z,101047.94
2022-12-20T03:43:36.601Z,101045.09
2022-12-20T03:46:04.472Z,101044.41
2022-12-20T03:48:34.705Z,101035.06
2022-12-20T03:51:01.165Z,101044.81
2022-12-20T03:53:27.584Z,101033.19
2022-12-20T03:55:54.033Z,101040.91
2022-12-20T03:58:20.886Z,101044.41
2022-12-20T04:00:47.675Z,101045.63
2022-12-20T04:03:34.446Z,101047.28
2022-12-20T04:06:00.936Z,101039.34
2022-12-20T04:08:28.012Z,101039.84
2022-12-20T04:11:13.520Z,101034.94
2022-12-20T04:13:48.689Z,101037.34
2022-12-20T04:16:18.155Z,101026.72
2022-12-20T04:18:45.181Z,101019.88
2022-12-20T04:21:13.172Z,101016.16
2022-12-20T04:23:43.558Z,101027.09
2022-12-20T04:26:10.780Z,101025.88
2022-12-20T04:28:37.967Z,101018.97
2022-12-20T04:31:06.566Z,101014.25
2022-12-20T04:33:36.685Z,101007.50
2022-12-20T04:36:03.933Z,101004.16
2022-12-20T04:38:31.251Z,101004.16
2022-12-20T04:40:57.983Z,101007.69
2022-12-20T04:43:26.632Z,101014.44
2022-12-20T04:45:58.082Z,101010.72
2022-12-20T04:51:14.003Z,100991.22
2022-12-20T04:53:49.808Z,101013.34
2022-12-20T04:56:42.462Z,101007.97
2022-12-20T04:59:12.500Z,101000.41
2022-12-20T05:01:41.619Z,101001.06
2022-12-20T05:04:08.860Z,101002.53
2022-12-20T05:06:37.002Z,100991.69
2022-12-20T05:09:04.068Z,100995.03
2022-12-20T05:11:31.645Z,100986.78
2022-12-20T05:13:58.316Z,100982.25
2022-12-20T05:16:25.000Z,100979.25
2022-12-20T05:18:52.735Z,100979.59
2022-12-20T05:21:39.226Z,100971.53
2022-12-20T05:24:25.382Z,100982.25
2022-12-20T05:26:58.931Z,100976.69
2022-12-20T05:29:27.188Z,100972.44
2022-12-20T05:31:54.225Z,100963.19
2022-12-20T05:34:21.026Z,100963.09
2022-12-20T05:36:52.375Z,100952.81
2022-12-20T05:39:20.224Z,100955.88
2022-12-20T05:41:48.706Z,100949.28
2022-12-20T05:44:15.389Z,100948.75
2022-12-20T05:46:45.215Z,100949.28
2022-12-20T05:49:17.906Z,100955.13
2022-12-20T05:51:44.452Z,100942.53
2022-12-20T05:54:25.410Z,100947.91
2022-12-20T05:57:05.744Z,100943.47
2022-12-20T05:59:35.460Z,100941.63
2022-12-20T06:02:04.710Z,100944.78
2022-12-20T06:04:32.807Z,100942.72
2022-12-20T06:07:02.986Z,100950.16
2022-12-20T06:09:30.161Z,100939.97
2022-12-20T06:12:04.986Z,100939.78
2022-12-20T06:14:33.477Z,100929.03
2022-12-20T06:17:00.890Z,100933.28
2022-12-20T06:19:27.532Z,100922.19
2022-12-20T06:21:59.505Z,100939.59
2022-12-20T06:24:44.342Z,100940.31
2022-12-20T06:27:14.500Z,100932.75
2022-12-20T06:29:51.904Z,100939.06
2022-12-20T06:32:21.232Z,100944.78
2022-12-20T06:34:48.521Z,100940.91
2022-12-20T06:37:17.060Z,100949.59
2022-12-20T06:39:43.736Z,100944.44
2022-12-20T06:42:10.156Z,100940.53
2022-12-20T06:44:39.051Z,100941.34
2022-12-20T06:47:05.741Z,100937.66
2022-12-20T06:49:32.226Z,100938.22
2022-12-20T06:51:59.039Z,100935.69
2022-12-20T06:54:35.200Z,100934.88
2022-12-20T06:57:01.767Z,100931.91
2022-12-20T06:59:28.492Z,100934.84
2022-12-20T07:01:55.156Z,100923.75
2022-12-20T07:04:21.912Z,100922.34
2022-12-20T07:06:48.485Z,100928.75
2022-12-20T07:09:14.967Z,100925.88
2022-12-20T07:11:43.255Z,100939.22
2022-12-20T07:14:10.211Z,100924.75
2022-12-20T07:16:37.678Z,100922.19
2022-12-20T07:19:04.193Z,100918.66
2022-12-20T07:21:30.606Z,100924.50
2022-12-20T07:23:57.003Z,100931.25
2022-12-20T07:26:23.480Z,100918.47
2022-12-20T07:28:49.903Z,100929.84
2022-12-20T07:31:16.408Z,100914.41
2022-12-20T07:33:43.003Z,100920.97
2022-12-20T07:36:13.006Z,100924.97
2022-12-20T07:38:39.631Z,100933.13
2022-12-20T07:41:10.780Z,100942.22
2022-12-20T07:43:37.606Z,100941.81
2022-12-20T07:46:05.286Z,100929.53
2022-12-20T07:48:32.492Z,100928.28
2022-12-20T07:51:07.207Z,100933.50
2022-12-20T07:53:38.833Z,100939.50
2022-12-20T07:56:08.923Z,100927.47
2022-12-20T07:58:39.921Z,100925.13
2022-12-20T08:01:07.425Z,100923.22
2022-12-20T08:03:47.545Z,100928.38
2022-12-20T08:06:16.463Z,100929.22
2022-12-20T08:08:47.818Z,100929.06
2022-12-20T08:11:16.287Z,100913.28
2022-12-20T08:13:46.581Z,100929.53
2022-12-20T08:16:14.044Z,100921.53
2022-12-20T08:18:40.559Z,100936.66
2022-12-20T08:21:07.098Z,100926.44
2022-12-20T08:23:33.475Z,100938.22
2022-12-20T08:26:03.017Z,100942.19
2022-12-20T08:28:29.457Z,100945.91
2022-12-20T08:31:07.294Z,100946.09
2022-12-20T08:33:35.095Z,100952.13
2022-12-20T08:36:03.623Z,100962.66
2022-12-20T08:38:31.011Z,100948.50
2022-12-20T08:41:11.390Z,100929.31
2022-12-20T08:43:39.101Z,100940.63
2022-12-20T08:46:06.878Z,100943.94
2022-12-20T08:48:33.961Z,100940.72
2022-12-20T08:51:03.658Z,100939.88
2022-12-20T08:53:30.930Z,100939.72
2022-12-20T08:56:22.485Z,100922.56
2022-12-20T08:58:49.187Z,100929.53
2022-12-20T09:01:20.507Z,100931.38
2022-12-20T09:03:48.272Z,100926.84
2022-12-20T09:06:18.137Z,100927.31
2022-12-20T09:08:44.672Z,100927.47
2022-12-20T09:11:14.246Z,100924.50
2022-12-20T09:13:44.229Z,100923.31
2022-12-20T09:16:13.033Z,100930.16
2022-12-20T09:18:39.773Z,100922.91
2022-12-20T09:21:08.678Z,100934.06
2022-12-20T09:23:36.831Z,100944.63
2022-12-20T09:26:05.595Z,100934.91
2022-12-20T09:28:32.773Z,100937.38
2022-12-20T09:31:04.773Z,100932.00
2022-12-20T09:33:32.292Z,100919.75
2022-12-20T09:35:59.474Z,100919.69
2022-12-20T09:38:26.657Z,100925.34
2022-12-20T09:40:57.189Z,100922.44
2022-12-20T09:43:24.877Z,100922.44
2022-12-20T09:45:54.174Z,100927.09
2022-12-20T09:48:24.787Z,100939.03
2022-12-20T09:51:21.991Z,100945.16
2022-12-20T09:54:11.352Z,100943.69
2022-12-20T09:56:45.463Z,100927.28
2022-12-20T09:59:15.404Z,100939.97
2022-12-20T10:01:47.534Z,100943.41
2022-12-20T10:04:29.544Z,100932.75
2022-12-20T10:07:05.214Z,100936.09
2022-12-20T10:09:51.243Z,100927.38
2022-12-20T10:12:48.994Z,100930.25
2022-12-20T10:15:28.455Z,100933.69
2022-12-20T10:18:19.488Z,100924.50
2022-12-20T10:21:09.430Z,100927.09
2022-12-20T10:23:38.488Z,100918.69
2022-12-20T10:26:10.451Z,100918.28
2022-12-20T10:28:37.745Z,100913.09
2022-12-20T10:31:12.515Z,100908.09
2022-12-20T10:33:39.945Z,100904.78
2022-12-20T10:36:28.399Z,100902.72
2022-12-20T10:39:01.043Z,100898.75
2022-12-20T10:41:34.137Z,100900.78
2022-12-20T10:44:04.624Z,100903.28
2022-12-20T10:46:49.562Z,100907.09
2022-12-20T10:49:31.936Z,100903.00
2022-12-20T10:52:02.050Z,100905.97
2022-12-20T10:54:37.328Z,100901.88
2022-12-20T10:57:26.192Z,100897.44
2022-12-20T11:00:05.865Z,100895.69
2022-12-20T11:02:40.765Z,100900.59
2022-12-20T11:05:11.012Z,100904.56
2022-12-20T11:08:24.581Z,100895.88
2022-12-20T11:10:37.642Z,100894.84
2022-12-20T11:13:04.283Z,100898.19
2022-12-20T11:15:34.838Z,100897.44
2022-12-20T11:18:15.376Z,100901.16
2022-12-20T11:20:51.871Z,100900.75
2022-12-20T11:23:36.294Z,100898.94
2022-12-20T11:26:21.255Z,100896.50
2022-12-20T11:29:12.651Z,100891.59
2022-12-20T11:32:08.028Z,100887.63
2022-12-20T11:35:01.101Z,100888.34
2022-12-20T11:37:36.392Z,100883.19
2022-12-20T11:40:33.105Z,100880.75
2022-12-20T11:43:21.161Z,100889.75
2022-12-20T11:46:06.338Z,100889.91
2022-12-20T11:49:01.209Z,100886.13
2022-12-20T11:51:46.786Z,100883.25
2022-12-20T11:54:21.346Z,100879.00
2022-12-20T11:56:52.994Z,100895.75
2022-12-20T11:59:34.898Z,100891.59
2022-12-20T12:02:12.524Z,100882.03
2022-12-20T12:04:45.247Z,100891.97
2022-12-20T12:07:19.003Z,100891.78
2022-12-20T12:10:02.590Z,100890.19
2022-12-20T12:12:46.680Z,100891.66
2022-12-20T12:15:31.901Z,100895.38
2022-12-20T12:18:09.187Z,100883.22
2022-12-20T12:20:44.478Z,100888.72
2022-12-20T12:23:23.908Z,100891.41
2022-12-20T12:25:50.713Z,100880.66
2022-12-20T12:28:19.674Z,100883.44
2022-12-20T12:30:54.483Z,100872.47
2022-12-20T12:33:26.312Z,100873.97
2022-12-20T12:35:52.699Z,100869.63
2022-12-20T12:38:54.399Z,100877.28
2022-12-20T12:42:10.661Z,100880.63
2022-12-20T12:44:46.106Z,100878.78
2022-12-20T12:47:21.832Z,100883.59
2022-12-20T12:49:51.565Z,100877.22
2022-12-20T12:52:39.853Z,100880.38
2022-12-20T12:55:37.120Z,100883.31
2022-12-20T12:58:23.878Z,100883.94
2022-12-20T13:01:05.415Z,100877.69
2022-12-20T13:03:51.652Z,100877.94
2022-12-20T13:06:23.943Z,100883.94
2022-12-20T13:09:30.480Z,100880.16
2022-12-20T13:12:03.301Z,100877.69
2022-12-20T13:14:31.980Z,100868.97
2022-12-20T13:17:13.718Z,100879.34
2022-12-20T13:19:54.667Z,100875.88
2022-12-20T13:22:23.670Z,100888.69
2022-12-20T13:25:00.029Z,100876.53
2022-12-20T13:27:31.032Z,100877.63
2022-12-20T13:30:08.036Z,100883.25
2022-12-20T13:32:46.484Z,100890.72
2022-12-20T13:35:28.206Z,100886.34
2022-12-20T13:38:05.828Z,100877.88
2022-12-20T13:40:39.332Z,100883.47
2022-12-20T13:43:12.551Z,100878.91
2022-12-20T13:45:43.265Z,100877.47
2022-12-20T13:48:17.985Z,100874.56
2022-12-20T13:50:52.176Z,100873.28
2022-12-20T13:53:29.976Z,100870.03
2022-12-20T13:55:56.444Z,100868.81
2022-12-20T13:58:27.788Z,100872.50
2022-12-20T14:01:03.413Z,100879.94
2022-12-20T14:03:31.339Z,100871.06
2022-12-20T14:06:10.264Z,100868.16
2022-12-20T14:08:42.784Z,100864.44
2022-12-20T14:11:22.609Z,100863.72
2022-12-20T14:13:54.852Z,100878.91
2022-12-20T14:16:23.186Z,100865.94
2022-12-20T14:18:51.131Z,100884.38
2022-12-20T14:21:18.586Z,100880.16
2022-12-20T14:23:48.872Z,100887.09
2022-12-20T14:26:24.706Z,100875.50
2022-12-20T14:29:01.430Z,100886.53
2022-12-20T14:31:29.310Z,100889.22
2022-12-20T14:34:13.962Z,100891.91
2022-12-20T14:36:43.215Z,100878.47
2022-12-20T14:39:29.860Z,100885.59
2022-12-20T14:41:58.903Z,100888.84
2022-12-20T14:44:27.294Z,100885.53
2022-12-20T14:47:16.307Z,100883.84
2022-12-20T14:49:49.264Z,100887.19
2022-12-20T14:52:19.955Z,100886.81
2022-12-20T14:55:09.121Z,100883.94
2022-12-20T14:57:36.501Z,100872.97
2022-12-20T15:00:14.820Z,100878.16
2022-12-20T15:03:00.021Z,100862.88
2022-12-20T15:05:36.454Z,100861.94
2022-12-20T15:08:21.301Z,100852.84
2022-12-20T15:11:10.252Z,100839.69
2022-12-20T15:13:46.654Z,100856.19
2022-12-20T15:16:19.916Z,100859.63
2022-12-20T15:18:47.783Z,100866.41
2022-12-20T15:21:32.940Z,100879.13
2022-12-20T15:24:08.374Z,100876.22
2022-12-20T15:26:35.856Z,100874.19
2022-12-20T15:29:02.293Z,100874.38
2022-12-20T15:31:33.659Z,100869.41
2022-12-20T15:34:03.683Z,100871.22
2022-12-20T15:36:30.443Z,100870.22
2022-12-20T15:39:14.511Z,100868.34
2022-12-20T15:41:47.268Z,100876.06
2022-12-20T15:44:20.576Z,100873.78
2022-12-20T15:46:47.196Z,100872.78
2022-12-20T15:49:16.013Z,100883.34
2022-12-20T15:51:44.327Z,100871.75
2022-12-20T15:54:29.664Z,100880.03
2022-12-20T15:56:58.327Z,100882.91
2022-12-20T16:02:23.506Z,100879.38
2022-12-20T16:04:50.726Z,100872.13
2022-12-20T16:07:17.349Z,100885.41
2022-12-20T16:09:44.217Z,100888.28
2022-12-20T16:12:18.313Z,100881.59
2022-12-20T16:14:44.853Z,100884.28
2022-12-20T16:17:15.436Z,100883.72
2022-12-20T16:19:43.247Z,100893.66
2022-12-20T16:22:22.047Z,100897.75
2022-12-20T16:24:49.288Z,100895.44
2022-12-20T16:27:15.751Z,100885.53
2022-12-20T16:29:42.151Z,100892.31
2022-12-20T16:32:17.251Z,100885.53
2022-12-20T16:34:44.640Z,100891.28
2022-12-20T16:37:14.090Z,100889.63
2022-12-20T16:39:41.482Z,100888.38
2022-12-20T16:42:15.538Z,100890.25
2022-12-20T16:44:44.465Z,100887.00
2022-12-20T16:47:11.923Z,100882.44
2022-12-20T16:49:39.075Z,100884.75
2022-12-20T16:52:16.820Z,100890.13
2022-12-20T16:54:43.429Z,100894.22
2022-12-20T16:57:10.404Z,100895.88
2022-12-20T16:59:36.866Z,100906.59
2022-12-20T17:02:03.608Z,100906.75
2022-12-20T17:04:30.251Z,100897.69
2022-12-20T17:06:56.760Z,100907.41
2022-12-20T17:12:17.886Z,100900.81
2022-12-20T17:14:44.655Z,100897.22
2022-12-20T17:17:11.018Z,100896.41
2022-12-20T17:19:37.463Z,100909.63
2022-12-20T17:24:47.838Z,100922.06
2022-12-20T17:27:14.243Z,100916.88
2022-12-20T17:29:40.773Z,100919.94
2022-12-20T17:32:22.015Z,100923.47
2022-12-20T17:34:48.721Z,100923.09
2022-12-20T17:37:15.210Z,100932.19
2022-12-20T17:39:41.589Z,100925.97
2022-12-20T17:42:12.303Z,100931.34
2022-12-20T17:44:38.790Z,100930.31
2022-12-20T17:47:05.201Z,100935.50
2022-12-20T17:49:31.612Z,100926.59
2022-12-20T17:51:58.076Z,100920.84
2022-12-20T17:54:26.862Z,100927.91
2022-12-20T17:56:53.673Z,100923.53
2022-12-20T17:59:21.742Z,100927.06
2022-12-20T18:01:48.741Z,100929.28
2022-12-20T18:04:16.454Z,100922.88
2022-12-20T18:06:44.911Z,100920.84
2022-12-20T18:09:19.436Z,100927.25
2022-12-20T18:11:46.977Z,100918.53
2022-12-20T18:14:14.792Z,100923.53
2022-12-20T18:16:41.322Z,100926.03
2022-12-20T18:19:14.427Z,100931.63
2022-12-20T18:21:41.648Z,100945.69
2022-12-20T18:24:12.218Z,100939.31
2022-12-20T18:26:38.695Z,100950.06
2022-12-20T18:29:05.209Z,100944.50
2022-12-20T18:31:34.169Z,100948.84
2022-12-20T18:34:01.340Z,100943.84
2022-12-20T18:36:30.574Z,100940.97
2022-12-20T18:38:59.260Z,100934.75
2022-12-20T18:41:28.605Z,100938.09
2022-12-20T18:44:03.613Z,100941.44
2022-12-20T18:46:30.740Z,100936.22
2022-12-20T18:48:59.466Z,100944.97
2022-12-20T18:51:31.659Z,100936.06
2022-12-20T18:53:59.899Z,100947.66
2022-12-20T18:56:30.952Z,100946.81
2022-12-20T18:59:04.774Z,100938.28
2022-12-20T19:01:38.484Z,100935.22
2022-12-20T19:04:07.452Z,100943.91
2022-12-20T19:06:35.794Z,100943.91
2022-12-20T19:09:07.710Z,100941.22
2022-12-20T19:11:35.128Z,100937.91
2022-12-20T19:14:01.901Z,100937.25
2022-12-20T19:16:32.364Z,100933.53
2022-12-20T19:19:00.041Z,100937.72
2022-12-20T19:21:29.070Z,100934.81
2022-12-20T19:23:58.438Z,100937.34
2022-12-20T19:26:29.973Z,100937.72
2022-12-20T19:28:57.464Z,100942.25
2022-12-20T19:31:29.941Z,100949.50
2022-12-20T19:33:59.532Z,100956.75
2022-12-20T19:36:29.094Z,100953.66
2022-12-20T19:39:00.740Z,100944.75
2022-12-20T19:41:30.743Z,100945.59
2022-12-20T19:43:57.495Z,100944.13
2022-12-20T19:46:29.476Z,100943.09
2022-12-20T19:48:57.875Z,100953.03
2022-12-20T19:51:25.664Z,100949.50
2022-12-20T19:53:53.495Z,100957.94
2022-12-20T19:56:22.862Z,100966.84
2022-12-20T19:58:49.828Z,100959.44
2022-12-20T20:01:17.877Z,100962.94
2022-12-20T20:03:44.726Z,100964.59
2022-12-20T20:06:12.086Z,100975.16
2022-12-20T20:08:41.089Z,100979.72
2022-12-20T20:11:10.037Z,100981.56
2022-12-20T20:13:38.181Z,100980.94
2022-12-20T20:16:05.834Z,100991.72
2022-12-20T20:18:37.126Z,100994.41
2022-12-20T20:21:13.587Z,100987.72
2022-12-20T20:23:40.210Z,100975.47
2022-12-20T20:26:10.044Z,100969.44
2022-12-20T20:28:44.506Z,100986.22
2022-12-20T20:31:15.112Z,100987.88
2022-12-20T20:33:42.055Z,100996.16
2022-12-20T20:36:12.532Z,100992.44
2022-12-20T20:38:38.998Z,100980.19
2022-12-20T20:41:05.564Z,100968.59
2022-12-20T20:43:36.626Z,100974.81
2022-12-20T20:46:05.976Z,100985.56
2022-12-20T20:48:32.622Z,100996.31
2022-12-20T20:50:59.196Z,101002.72
2022-12-20T20:53:32.751Z,100997.72
2022-12-20T20:56:00.177Z,100999.97
2022-12-20T20:58:26.972Z,101007.38
2022-12-20T21:00:58.843Z,101010.25
2022-12-20T21:03:27.338Z,101022.19
2022-12-20T21:08:41.111Z,101005.59
2022-12-20T21:11:08.545Z,101003.75
2022-12-20T21:13:35.096Z,101002.09
2022-12-20T21:16:06.511Z,101011.34
2022-12-20T21:18:33.072Z,101016.72
2022-12-20T21:20:59.920Z,101008.50
2022-12-20T21:23:26.310Z,101009.69
2022-12-20T21:25:57.111Z,100996.44
2022-12-20T21:28:23.600Z,100991.06
2022-12-20T21:30:59.033Z,100983.16
2022-12-20T21:33:29.348Z,100997.28
2022-12-20T21:36:04.571Z,100983.81
2022-12-20T21:38:31.210Z,100992.91
2022-12-20T21:41:06.766Z,100988.53
2022-12-20T21:43:35.777Z,100989.75
2022-12-20T21:46:04.783Z,100992.44
2022-12-20T21:48:33.691Z,101007.09
2022-12-20T21:51:12.806Z,101015.34
2022-12-20T21:53:48.165Z,101011.81
2022-12-20T21:56:23.758Z,100994.19
2022-12-20T21:58:50.939Z,100994.19
2022-12-20T22:01:26.690Z,101003.94
2022-12-20T22:04:06.369Z,101006.59
2022-12-20T22:06:34.410Z,101007.84
2022-12-20T22:09:09.068Z,101006.13
2022-12-20T22:11:36.830Z,101003.66
2022-12-20T22:14:03.291Z,101004.47
2022-12-20T22:16:31.657Z,101004.00
2022-12-20T22:18:59.964Z,101017.44
2022-12-20T22:21:29.368Z,101014.94
2022-12-20T22:23:57.143Z,101011.44
2022-12-20T22:26:26.551Z,101016.97
2022-12-20T22:28:55.555Z,101019.56
2022-12-20T22:31:22.414Z,101015.88
2022-12-20T22:33:49.370Z,101021.44
2022-12-20T22:36:17.113Z,101016.41
2022-12-20T22:38:43.654Z,101011.88
2022-12-20T22:41:17.547Z,101014.38
2022-12-20T22:43:45.413Z,101014.56
2022-12-20T22:46:13.521Z,101019.25
2022-12-20T22:48:40.522Z,101015.94
2022-12-20T22:51:10.296Z,101014.28
2022-12-20T22:53:37.706Z,101012.13
2022-12-20T22:56:05.371Z,101019.53
2022-12-20T22:58:33.438Z,101017.19
2022-12-20T23:01:02.389Z,101013.03
2022-12-20T23:03:30.267Z,101019.41
2022-12-20T23:06:00.468Z,101021.47
2022-12-20T23:08:29.364Z,101022.47
2022-12-20T23:11:14.486Z,101023.84
2022-12-20T23:14:00.274Z,101025.88
2022-12-20T23:16:27.277Z,101026.91
2022-12-20T23:18:58.590Z,101021.53
2022-12-20T23:21:45.166Z,101029.59
2022-12-20T23:24:12.232Z,101034.97
2022-12-20T23:26:39.269Z,101038.47
2022-12-20T23:29:07.330Z,101034.97
2022-12-20T23:31:34.216Z,101038.66
2022-12-20T23:34:01.689Z,101044.19
2022-12-20T23:36:29.299Z,101043.16
2022-12-20T23:38:56.753Z,101040.69
2022-12-20T23:41:23.783Z,101038.00
2022-12-20T23:43:50.173Z,101030.97
2022-12-20T23:46:18.947Z,101034.47
2022-12-20T23:48:45.515Z,101030.13
2022-12-20T23:51:11.894Z,101038.00
2022-12-20T23:53:38.384Z,101043.72
2022-12-20T23:56:06.305Z,101048.59
2022-12-20T23:58:32.847Z,101038.59
